Terminal Aerodrome Forecast
Issued by NWS Springfield, MO

Home | Current Version | Previous Version | Text Only | Print | Product List | Glossary On
Versions: 1 2 3 4 5 6 7 8 9 10 11 12 13 14 15 16 17 18 19 20 21 22 23 24 25 26 27 28 29 30
000
FTUS43 KSGF 172320
TAFSGF
TAF
KSGF 172320Z 1800/1824 28006KT P6SM OVC008
     FM180500 VRB03KT 2SM BR SCT003 OVC008
     FM181000 VRB02KT 1/2SM FG BKN003
     FM181400 16005KT 4SM BR SCT003
     FM181600 16006KT P6SM BKN050=

USA.gov is the U.S. government's official web portal to all federal, state and local government web resources and services.